sensor_id;sensor_type;location;lat;lon;timestamp;pressure;altitude;pressure_sealevel;temperature;humidity
43711;BME280;29309;42.682;23.372;2023-05-23T00:01:17;95077.63;;;12.41;100.00
43711;BME280;29309;42.682;23.372;2023-05-23T00:03:42;95075.53;;;12.41;100.00
43711;BME280;29309;42.682;23.372;2023-05-23T00:06:08;95069.84;;;12.37;100.00
43711;BME280;29309;42.682;23.372;2023-05-23T00:08:34;95074.03;;;12.38;100.00
43711;BME280;29309;42.682;23.372;2023-05-23T00:10:59;95082.78;;;12.30;100.00
43711;BME280;29309;42.682;23.372;2023-05-23T00:13:25;95075.63;;;12.25;100.00
43711;BME280;29309;42.682;23.372;2023-05-23T00:15:51;95081.56;;;12.18;100.00
43711;BME280;29309;42.682;23.372;2023-05-23T00:18:16;95079.16;;;12.10;100.00
43711;BME280;29309;42.682;23.372;2023-05-23T00:20:43;95079.16;;;12.10;100.00
43711;BME280;29309;42.682;23.372;2023-05-23T00:23:09;95074.59;;;12.01;100.00
43711;BME280;29309;42.682;23.372;2023-05-23T00:25:36;95073.53;;;11.93;100.00
43711;BME280;29309;42.682;23.372;2023-05-23T00:28:02;95080.91;;;11.86;100.00
43711;BME280;29309;42.682;23.372;2023-05-23T00:30:32;95075.19;;;11.82;100.00
43711;BME280;29309;42.682;23.372;2023-05-23T00:32:58;95072.47;;;11.84;100.00
43711;BME280;29309;42.682;23.372;2023-05-23T00:35:24;95076.69;;;11.85;100.00
43711;BME280;29309;42.682;23.372;2023-05-23T00:37:50;95069.16;;;11.88;100.00
43711;BME280;29309;42.682;23.372;2023-05-23T00:40:19;95062.78;;;11.85;100.00
43711;BME280;29309;42.682;23.372;2023-05-23T00:42:46;95063.50;;;11.86;100.00
43711;BME280;29309;42.682;23.372;2023-05-23T00:45:12;95060.19;;;11.89;100.00
43711;BME280;29309;42.682;23.372;2023-05-23T00:47:41;95066.47;;;11.90;100.00
43711;BME280;29309;42.682;23.372;2023-05-23T00:50:09;95072.09;;;11.92;100.00
43711;BME280;29309;42.682;23.372;2023-05-23T00:52:36;95060.19;;;11.89;100.00
43711;BME280;29309;42.682;23.372;2023-05-23T00:55:01;95067.09;;;11.88;100.00
43711;BME280;29309;42.682;23.372;2023-05-23T00:57:27;95063.50;;;11.86;100.00
43711;BME280;29309;42.682;23.372;2023-05-23T00:59:52;95069.78;;;11.86;100.00
43711;BME280;29309;42.682;23.372;2023-05-23T01:02:18;95074.63;;;11.86;100.00
43711;BME280;29309;42.682;23.372;2023-05-23T01:04:47;95075.38;;;11.86;100.00
43711;BME280;29309;42.682;23.372;2023-05-23T01:07:18;95089.34;;;11.88;100.00
43711;BME280;29309;42.682;23.372;2023-05-23T01:09:44;95078.75;;;11.84;100.00
43711;BME280;29309;42.682;23.372;2023-05-23T01:12:24;95072.31;;;11.80;100.00
43711;BME280;29309;42.682;23.372;2023-05-23T01:15:06;95074.47;;;11.81;100.00
43711;BME280;29309;42.682;23.372;2023-05-23T01:20:23;95066.56;;;11.76;100.00
43711;BME280;29309;42.682;23.372;2023-05-23T01:25:57;95080.19;;;11.70;100.00
43711;BME280;29309;42.682;23.372;2023-05-23T01:28:30;95073.91;;;11.69;100.00
43711;BME280;29309;42.682;23.372;2023-05-23T01:30:57;95080.19;;;11.70;100.00
43711;BME280;29309;42.682;23.372;2023-05-23T01:33:24;95072.47;;;11.68;100.00
43711;BME280;29309;42.682;23.372;2023-05-23T01:35:50;95067.00;;;11.70;100.00
43711;BME280;29309;42.682;23.372;2023-05-23T01:38:15;95073.72;;;11.65;100.00
43711;BME280;29309;42.682;23.372;2023-05-23T01:40:41;95071.50;;;11.62;100.00
43711;BME280;29309;42.682;23.372;2023-05-23T01:43:07;95071.50;;;11.62;100.00
43711;BME280;29309;42.682;23.372;2023-05-23T01:45:32;95065.38;;;11.65;100.00
43711;BME280;29309;42.682;23.372;2023-05-23T01:47:59;95068.88;;;11.66;100.00
43711;BME280;29309;42.682;23.372;2023-05-23T01:50:25;95055.09;;;11.68;100.00
43711;BME280;29309;42.682;23.372;2023-05-23T01:52:51;95061.25;;;11.66;100.00
43711;BME280;29309;42.682;23.372;2023-05-23T01:55:19;95058.22;;;11.60;100.00
43711;BME280;29309;42.682;23.372;2023-05-23T01:57:54;95061.00;;;11.60;100.00
43711;BME280;29309;42.682;23.372;2023-05-23T02:00:20;95056.06;;;11.59;100.00
43711;BME280;29309;42.682;23.372;2023-05-23T02:02:46;95057.16;;;11.52;100.00
43711;BME280;29309;42.682;23.372;2023-05-23T02:05:12;95064.78;;;11.51;100.00
43711;BME280;29309;42.682;23.372;2023-05-23T02:07:37;95052.84;;;11.49;100.00
43711;BME280;29309;42.682;23.372;2023-05-23T02:10:06;95061.09;;;11.47;100.00
43711;BME280;29309;42.682;23.372;2023-05-23T02:12:32;95063.16;;;11.46;100.00
43711;BME280;29309;42.682;23.372;2023-05-23T02:14:57;95068.09;;;11.48;100.00
43711;BME280;29309;42.682;23.372;2023-05-23T02:17:23;95064.78;;;11.51;100.00
43711;BME280;29309;42.682;23.372;2023-05-23T02:19:48;95061.25;;;11.51;100.00
43711;BME280;29309;42.682;23.372;2023-05-23T02:22:14;95069.78;;;11.55;100.00
43711;BME280;29309;42.682;23.372;2023-05-23T02:24:39;95065.84;;;11.60;100.00
43711;BME280;29309;42.682;23.372;2023-05-23T02:27:05;95056.78;;;11.59;100.00
43711;BME280;29309;42.682;23.372;2023-05-23T02:29:31;95049.16;;;11.60;100.00
43711;BME280;29309;42.682;23.372;2023-05-23T02:31:56;95060.38;;;11.62;100.00
43711;BME280;29309;42.682;23.372;2023-05-23T02:34:21;95058.84;;;11.59;100.00
43711;BME280;29309;42.682;23.372;2023-05-23T02:36:47;95062.16;;;11.55;100.00
43711;BME280;29309;42.682;23.372;2023-05-23T02:39:12;95060.03;;;11.54;100.00
43711;BME280;29309;42.682;23.372;2023-05-23T02:41:38;95051.59;;;11.52;100.00
43711;BME280;29309;42.682;23.372;2023-05-23T02:44:03;95045.94;;;11.50;100.00
43711;BME280;29309;42.682;23.372;2023-05-23T02:46:28;95055.53;;;11.47;100.00
43711;BME280;29309;42.682;23.372;2023-05-23T02:48:54;95056.25;;;11.47;100.00
43711;BME280;29309;42.682;23.372;2023-05-23T02:51:20;95053.13;;;11.39;100.00
43711;BME280;29309;42.682;23.372;2023-05-23T02:53:45;95053.50;;;11.31;100.00
43711;BME280;29309;42.682;23.372;2023-05-23T02:56:11;95050.44;;;11.25;100.00
43711;BME280;29309;42.682;23.372;2023-05-23T02:58:37;95054.03;;;11.28;100.00
43711;BME280;29309;42.682;23.372;2023-05-23T03:01:04;95052.41;;;11.23;99.70
43711;BME280;29309;42.682;23.372;2023-05-23T03:03:30;95051.78;;;11.24;99.59
43711;BME280;29309;42.682;23.372;2023-05-23T03:05:59;95048.47;;;11.28;99.26
43711;BME280;29309;42.682;23.372;2023-05-23T03:08:25;95048.91;;;11.22;98.88
43711;BME280;29309;42.682;23.372;2023-05-23T03:10:50;95047.31;;;11.17;98.41
43711;BME280;29309;42.682;23.372;2023-05-23T03:13:17;95049.91;;;11.13;98.42
43711;BME280;29309;42.682;23.372;2023-05-23T03:15:43;95050.63;;;11.14;98.07
43711;BME280;29309;42.682;23.372;2023-05-23T03:18:09;95060.81;;;11.09;96.54
43711;BME280;29309;42.682;23.372;2023-05-23T03:20:35;95054.34;;;11.05;96.51
43711;BME280;29309;42.682;23.372;2023-05-23T03:23:00;95060.72;;;11.07;96.78
43711;BME280;29309;42.682;23.372;2023-05-23T03:25:25;95063.22;;;11.01;96.70
43711;BME280;29309;42.682;23.372;2023-05-23T03:27:51;95063.94;;;11.02;96.74
43711;BME280;29309;42.682;23.372;2023-05-23T03:30:16;95059.19;;;11.04;96.88
43711;BME280;29309;42.682;23.372;2023-05-23T03:32:45;95069.25;;;11.11;96.36
43711;BME280;29309;42.682;23.372;2023-05-23T03:35:11;95072.31;;;11.17;96.47
43711;BME280;29309;42.682;23.372;2023-05-23T03:37:37;95074.09;;;11.26;96.68
43711;BME280;29309;42.682;23.372;2023-05-23T03:40:03;95078.69;;;11.35;96.21
43711;BME280;29309;42.682;23.372;2023-05-23T03:42:28;95083.31;;;11.47;96.55
43711;BME280;29309;42.682;23.372;2023-05-23T03:44:54;95088.16;;;11.62;96.31
43711;BME280;29309;42.682;23.372;2023-05-23T03:47:20;95073.19;;;11.69;96.00
43711;BME280;29309;42.682;23.372;2023-05-23T03:49:45;95079.78;;;11.75;95.00
43711;BME280;29309;42.682;23.372;2023-05-23T03:52:11;95087.91;;;11.87;94.15
43711;BME280;29309;42.682;23.372;2023-05-23T03:54:36;95090.41;;;11.97;93.55
43711;BME280;29309;42.682;23.372;2023-05-23T03:57:02;95093.69;;;12.09;92.78
43711;BME280;29309;42.682;23.372;2023-05-23T03:59:28;95090.72;;;12.20;92.52
43711;BME280;29309;42.682;23.372;2023-05-23T04:01:53;95092.09;;;12.37;92.11
43711;BME280;29309;42.682;23.372;2023-05-23T04:04:21;95091.41;;;12.54;91.34
43711;BME280;29309;42.682;23.372;2023-05-23T04:06:49;95079.06;;;12.77;90.20
43711;BME280;29309;42.682;23.372;2023-05-23T04:09:15;95078.19;;;12.90;89.87
43711;BME280;29309;42.682;23.372;2023-05-23T04:11:41;95079.09;;;13.12;89.04
43711;BME280;29309;42.682;23.372;2023-05-23T04:14:06;95085.19;;;13.26;88.09
43711;BME280;29309;42.682;23.372;2023-05-23T04:16:32;95084.22;;;13.38;86.07
43711;BME280;29309;42.682;23.372;2023-05-23T04:19:00;95081.34;;;13.36;84.74
43711;BME280;29309;42.682;23.372;2023-05-23T04:21:26;95085.72;;;13.41;83.97
43711;BME280;29309;42.682;23.372;2023-05-23T04:23:52;95084.88;;;13.56;84.13
43711;BME280;29309;42.682;23.372;2023-05-23T04:26:18;95088.59;;;13.82;84.25
43711;BME280;29309;42.682;23.372;2023-05-23T04:28:45;95087.13;;;13.99;82.26
43711;BME280;29309;42.682;23.372;2023-05-23T04:31:11;95088.31;;;13.94;80.98
43711;BME280;29309;42.682;23.372;2023-05-23T04:33:36;95103.00;;;13.74;81.02
43711;BME280;29309;42.682;23.372;2023-05-23T04:36:02;95102.13;;;13.70;81.38
43711;BME280;29309;42.682;23.372;2023-05-23T04:38:28;95099.56;;;13.56;82.25
43711;BME280;29309;42.682;23.372;2023-05-23T04:40:53;95099.56;;;13.39;81.92
43711;BME280;29309;42.682;23.372;2023-05-23T04:43:19;95086.47;;;13.23;82.18
43711;BME280;29309;42.682;23.372;2023-05-23T04:45:46;95094.19;;;13.07;82.55
43711;BME280;29309;42.682;23.372;2023-05-23T04:48:14;95097.94;;;12.96;83.51
43711;BME280;29309;42.682;23.372;2023-05-23T04:50:41;95098.44;;;12.91;84.20
43711;BME280;29309;42.682;23.372;2023-05-23T04:53:07;95099.06;;;12.89;85.19
43711;BME280;29309;42.682;23.372;2023-05-23T04:55:32;95103.59;;;12.98;85.68
43711;BME280;29309;42.682;23.372;2023-05-23T04:57:59;95101.50;;;12.99;85.24
43711;BME280;29309;42.682;23.372;2023-05-23T05:00:25;95100.47;;;13.08;85.33
43711;BME280;29309;42.682;23.372;2023-05-23T05:02:51;95103.53;;;13.14;85.33
43711;BME280;29309;42.682;23.372;2023-05-23T05:05:16;95106.97;;;13.12;85.73
43711;BME280;29309;42.682;23.372;2023-05-23T05:07:42;95103.81;;;13.04;85.89
43711;BME280;29309;42.682;23.372;2023-05-23T05:10:09;95112.66;;;12.99;86.54
43711;BME280;29309;42.682;23.372;2023-05-23T05:12:43;95108.19;;;12.92;87.63
43711;BME280;29309;42.682;23.372;2023-05-23T05:15:11;95109.16;;;12.80;88.34
43711;BME280;29309;42.682;23.372;2023-05-23T05:17:37;95110.34;;;12.75;89.71
43711;BME280;29309;42.682;23.372;2023-05-23T05:20:03;95113.16;;;12.75;90.40
43711;BME280;29309;42.682;23.372;2023-05-23T05:22:33;95117.94;;;12.73;90.44
43711;BME280;29309;42.682;23.372;2023-05-23T05:24:59;95127.38;;;12.66;90.91
43711;BME280;29309;42.682;23.372;2023-05-23T05:27:26;95121.50;;;12.75;91.79
43711;BME280;29309;42.682;23.372;2023-05-23T05:29:52;95120.28;;;12.80;91.66
43711;BME280;29309;42.682;23.372;2023-05-23T05:32:18;95115.38;;;12.79;92.14
43711;BME280;29309;42.682;23.372;2023-05-23T05:34:43;95111.94;;;12.80;92.23
43711;BME280;29309;42.682;23.372;2023-05-23T05:37:09;95116.66;;;12.76;91.70
43711;BME280;29309;42.682;23.372;2023-05-23T05:39:34;95115.44;;;12.81;92.56
43711;BME280;29309;42.682;23.372;2023-05-23T05:41:59;95116.88;;;12.82;92.36
43711;BME280;29309;42.682;23.372;2023-05-23T05:44:27;95111.31;;;12.82;92.85
43711;BME280;29309;42.682;23.372;2023-05-23T05:46:53;95118.16;;;12.79;92.31
43711;BME280;29309;42.682;23.372;2023-05-23T05:49:19;95124.91;;;12.74;92.95
43711;BME280;29309;42.682;23.372;2023-05-23T05:51:44;95129.75;;;12.73;93.30
43711;BME280;29309;42.682;23.372;2023-05-23T05:54:10;95122.28;;;12.78;93.26
43711;BME280;29309;42.682;23.372;2023-05-23T05:56:35;95121.13;;;12.83;93.50
43711;BME280;29309;42.682;23.372;2023-05-23T05:59:01;95128.53;;;12.94;93.96
43711;BME280;29309;42.682;23.372;2023-05-23T06:01:26;95119.22;;;13.05;93.11
43711;BME280;29309;42.682;23.372;2023-05-23T06:03:51;95118.19;;;13.14;92.47
43711;BME280;29309;42.682;23.372;2023-05-23T06:06:17;95123.41;;;13.24;92.27
43711;BME280;29309;42.682;23.372;2023-05-23T06:08:43;95124.66;;;13.39;91.60
43711;BME280;29309;42.682;23.372;2023-05-23T06:11:09;95125.28;;;13.55;91.62
43711;BME280;29309;42.682;23.372;2023-05-23T06:13:36;95129.31;;;13.69;90.73
43711;BME280;29309;42.682;23.372;2023-05-23T06:16:01;95127.81;;;13.86;90.11
43711;BME280;29309;42.682;23.372;2023-05-23T06:18:27;95129.75;;;14.01;88.78
43711;BME280;29309;42.682;23.372;2023-05-23T06:20:52;95121.25;;;14.17;87.97
43711;BME280;29309;42.682;23.372;2023-05-23T06:23:17;95129.44;;;14.32;87.45
43711;BME280;29309;42.682;23.372;2023-05-23T06:25:43;95129.91;;;14.45;86.52
43711;BME280;29309;42.682;23.372;2023-05-23T06:28:09;95135.81;;;14.55;86.14
43711;BME280;29309;42.682;23.372;2023-05-23T06:30:34;95131.50;;;14.71;86.01
43711;BME280;29309;42.682;23.372;2023-05-23T06:33:02;95125.72;;;14.87;85.13
43711;BME280;29309;42.682;23.372;2023-05-23T06:35:27;95131.63;;;14.97;84.68
43711;BME280;29309;42.682;23.372;2023-05-23T06:37:53;95136.88;;;15.09;83.47
43711;BME280;29309;42.682;23.372;2023-05-23T06:40:18;95133.69;;;15.18;83.03
43711;BME280;29309;42.682;23.372;2023-05-23T06:42:43;95133.25;;;15.26;82.81
43711;BME280;29309;42.682;23.372;2023-05-23T06:45:09;95133.66;;;15.40;82.15
43711;BME280;29309;42.682;23.372;2023-05-23T06:47:35;95137.44;;;15.49;81.38
43711;BME280;29309;42.682;23.372;2023-05-23T06:50:01;95130.31;;;15.67;81.39
43711;BME280;29309;42.682;23.372;2023-05-23T06:52:27;95123.31;;;15.92;81.34
43711;BME280;29309;42.682;23.372;2023-05-23T06:54:52;95121.63;;;16.33;80.76
43711;BME280;29309;42.682;23.372;2023-05-23T06:57:18;95123.50;;;16.78;79.02
43711;BME280;29309;42.682;23.372;2023-05-23T06:59:44;95116.34;;;17.30;76.15
43711;BME280;29309;42.682;23.372;2023-05-23T07:02:10;95122.25;;;17.74;71.38
43711;BME280;29309;42.682;23.372;2023-05-23T07:04:35;95119.69;;;17.86;70.14
43711;BME280;29309;42.682;23.372;2023-05-23T07:07:09;95111.66;;;18.04;70.74
43711;BME280;29309;42.682;23.372;2023-05-23T07:09:36;95110.75;;;18.32;70.24
43711;BME280;29309;42.682;23.372;2023-05-23T07:12:02;95116.44;;;18.72;69.87
43711;BME280;29309;42.682;23.372;2023-05-23T07:14:28;95122.69;;;19.10;67.76
43711;BME280;29309;42.682;23.372;2023-05-23T07:16:53;95112.72;;;19.47;65.77
43711;BME280;29309;42.682;23.372;2023-05-23T07:19:18;95105.44;;;19.80;64.05
43711;BME280;29309;42.682;23.372;2023-05-23T07:21:44;95105.81;;;20.12;61.18
43711;BME280;29309;42.682;23.372;2023-05-23T07:24:09;95095.31;;;20.19;59.72
43711;BME280;29309;42.682;23.372;2023-05-23T07:26:35;95096.03;;;20.17;59.71
43711;BME280;29309;42.682;23.372;2023-05-23T07:29:00;95095.50;;;20.31;59.53
43711;BME280;29309;42.682;23.372;2023-05-23T07:31:26;95084.31;;;20.39;59.36
43711;BME280;29309;42.682;23.372;2023-05-23T07:33:51;95086.78;;;20.73;59.23
43711;BME280;29309;42.682;23.372;2023-05-23T07:36:17;95092.06;;;21.17;57.71
43711;BME280;29309;42.682;23.372;2023-05-23T07:38:42;95094.22;;;21.16;57.17
43711;BME280;29309;42.682;23.372;2023-05-23T07:41:07;95082.78;;;21.06;59.12
43711;BME280;29309;42.682;23.372;2023-05-23T07:43:33;95080.28;;;21.44;58.41
43711;BME280;29309;42.682;23.372;2023-05-23T07:45:58;95083.16;;;21.56;56.52
43711;BME280;29309;42.682;23.372;2023-05-23T07:48:24;95088.22;;;21.78;55.93
43711;BME280;29309;42.682;23.372;2023-05-23T07:50:51;95083.31;;;21.83;55.60
43711;BME280;29309;42.682;23.372;2023-05-23T07:53:20;95079.88;;;21.98;55.20
43711;BME280;29309;42.682;23.372;2023-05-23T07:55:45;95082.06;;;22.16;55.22
43711;BME280;29309;42.682;23.372;2023-05-23T07:58:11;95082.09;;;22.20;54.24
43711;BME280;29309;42.682;23.372;2023-05-23T08:00:36;95080.72;;;22.39;54.52
43711;BME280;29309;42.682;23.372;2023-05-23T08:03:03;95075.81;;;22.60;53.63
43711;BME280;29309;42.682;23.372;2023-05-23T08:05:28;95076.53;;;22.67;52.93
43711;BME280;29309;42.682;23.372;2023-05-23T08:07:54;95078.63;;;22.46;53.76
43711;BME280;29309;42.682;23.372;2023-05-23T08:10:19;95065.91;;;22.59;54.30
43711;BME280;29309;42.682;23.372;2023-05-23T08:12:44;95067.31;;;22.54;53.93
43711;BME280;29309;42.682;23.372;2023-05-23T08:15:10;95065.97;;;22.67;54.24
43711;BME280;29309;42.682;23.372;2023-05-23T08:17:36;95060.97;;;22.62;53.79
43711;BME280;29309;42.682;23.372;2023-05-23T08:20:02;95062.44;;;22.71;54.04
43711;BME280;29309;42.682;23.372;2023-05-23T08:22:29;95074.47;;;22.71;54.57
43711;BME280;29309;42.682;23.372;2023-05-23T08:24:54;95070.91;;;22.71;54.21
43711;BME280;29309;42.682;23.372;2023-05-23T08:27:20;95063.13;;;22.71;54.78
43711;BME280;29309;42.682;23.372;2023-05-23T08:29:45;95068.81;;;22.75;54.44
43711;BME280;29309;42.682;23.372;2023-05-23T08:32:11;95053.22;;;22.98;54.98
43711;BME280;29309;42.682;23.372;2023-05-23T08:34:36;95060.31;;;23.10;53.79
43711;BME280;29309;42.682;23.372;2023-05-23T08:37:01;95053.94;;;23.17;54.53
43711;BME280;29309;42.682;23.372;2023-05-23T08:39:27;95050.41;;;22.94;53.29
43711;BME280;29309;42.682;23.372;2023-05-23T08:41:53;95056.06;;;22.74;54.33
43711;BME280;29309;42.682;23.372;2023-05-23T08:44:19;95053.22;;;22.76;53.92
43711;BME280;29309;42.682;23.372;2023-05-23T08:46:46;95052.53;;;22.88;54.93
43711;BME280;29309;42.682;23.372;2023-05-23T08:49:16;95046.88;;;22.92;55.78
43711;BME280;29309;42.682;23.372;2023-05-23T08:51:42;95051.13;;;22.89;54.02
43711;BME280;29309;42.682;23.372;2023-05-23T08:54:09;95052.50;;;22.76;55.06
43711;BME280;29309;42.682;23.372;2023-05-23T08:56:37;95046.16;;;22.71;53.68
43711;BME280;29309;42.682;23.372;2023-05-23T08:59:03;95051.03;;;22.54;54.97
43711;BME280;29309;42.682;23.372;2023-05-23T09:01:29;95050.31;;;22.38;55.44
43711;BME280;29309;42.682;23.372;2023-05-23T09:03:54;95036.13;;;22.26;55.46
43711;BME280;29309;42.682;23.372;2023-05-23T09:06:20;95039.00;;;22.34;56.17
43711;BME280;29309;42.682;23.372;2023-05-23T09:08:46;95041.81;;;22.30;57.26
43711;BME280;29309;42.682;23.372;2023-05-23T09:11:12;95036.19;;;22.48;57.53
43711;BME280;29309;42.682;23.372;2023-05-23T09:13:38;95040.44;;;22.59;54.86
43711;BME280;29309;42.682;23.372;2023-05-23T09:16:09;95029.16;;;22.67;54.20
43711;BME280;29309;42.682;23.372;2023-05-23T09:18:36;95029.16;;;22.91;55.14
43711;BME280;29309;42.682;23.372;2023-05-23T09:21:02;95032.00;;;23.10;54.32
43711;BME280;29309;42.682;23.372;2023-05-23T09:23:32;95027.03;;;23.16;53.57
43711;BME280;29309;42.682;23.372;2023-05-23T09:26:06;95026.28;;;23.34;53.22
43711;BME280;29309;42.682;23.372;2023-05-23T09:28:32;95019.94;;;23.27;50.75
43711;BME280;29309;42.682;23.372;2023-05-23T09:31:05;95014.97;;;23.16;48.86
43711;BME280;29309;42.682;23.372;2023-05-23T09:33:44;95021.38;;;23.18;49.27
43711;BME280;29309;42.682;23.372;2023-05-23T09:36:11;95021.38;;;23.22;45.05
43711;BME280;29309;42.682;23.372;2023-05-23T09:38:38;95014.97;;;23.30;44.62
43711;BME280;29309;42.682;23.372;2023-05-23T09:41:04;95017.78;;;23.54;45.58
43711;BME280;29309;42.682;23.372;2023-05-23T09:43:30;95007.81;;;23.59;41.92
43711;BME280;29309;42.682;23.372;2023-05-23T09:46:10;95005.03;;;23.49;42.08
43711;BME280;29309;42.682;23.372;2023-05-23T09:48:36;94996.53;;;23.37;42.02
43711;BME280;29309;42.682;23.372;2023-05-23T09:51:07;95017.78;;;23.34;41.27
43711;BME280;29309;42.682;23.372;2023-05-23T09:53:33;95000.16;;;23.07;40.88
43711;BME280;29309;42.682;23.372;2023-05-23T09:56:00;94996.63;;;22.80;42.16
43711;BME280;29309;42.682;23.372;2023-05-23T09:58:27;94984.59;;;22.72;42.09
43711;BME280;29309;42.682;23.372;2023-05-23T10:00:55;94989.53;;;22.73;42.06
43711;BME280;29309;42.682;23.372;2023-05-23T10:03:26;94999.44;;;22.84;42.82
43711;BME280;29309;42.682;23.372;2023-05-23T10:05:58;94993.06;;;22.76;40.77
43711;BME280;29309;42.682;23.372;2023-05-23T10:08:40;94996.63;;;22.74;40.43
43711;BME280;29309;42.682;23.372;2023-05-23T10:13:45;94992.38;;;22.71;39.74
43711;BME280;29309;42.682;23.372;2023-05-23T10:16:54;94988.81;;;22.54;39.27
43711;BME280;29309;42.682;23.372;2023-05-23T10:19:24;94993.78;;;22.50;39.05
43711;BME280;29309;42.682;23.372;2023-05-23T10:22:03;94988.06;;;22.36;36.91
43711;BME280;29309;42.682;23.372;2023-05-23T10:24:31;94971.13;;;22.34;39.83
43711;BME280;29309;42.682;23.372;2023-05-23T10:26:58;94986.69;;;22.41;41.36
43711;BME280;29309;42.682;23.372;2023-05-23T10:29:24;94975.34;;;22.33;37.14
43711;BME280;29309;42.682;23.372;2023-05-23T10:31:50;94984.56;;;22.31;37.74
43711;BME280;29309;42.682;23.372;2023-05-23T10:34:31;94976.78;;;22.32;38.29
43711;BME280;29309;42.682;23.372;2023-05-23T10:37:02;94973.25;;;22.31;38.83
43711;BME280;29309;42.682;23.372;2023-05-23T10:45:15;94957.66;;;22.36;39.22
43711;BME280;29309;42.682;23.372;2023-05-23T10:47:41;94969.00;;;22.52;39.02
43711;BME280;29309;42.682;23.372;2023-05-23T10:50:06;94964.06;;;22.55;38.13
43711;BME280;29309;42.682;23.372;2023-05-23T10:52:39;94956.97;;;22.48;37.97
43711;BME280;29309;42.682;23.372;2023-05-23T10:55:15;94961.94;;;22.53;37.73
43711;BME280;29309;42.682;23.372;2023-05-23T10:57:43;94960.50;;;22.44;36.45
43711;BME280;29309;42.682;23.372;2023-05-23T11:00:15;94959.81;;;22.38;37.28
43711;BME280;29309;42.682;23.372;2023-05-23T11:02:54;94948.47;;;22.22;36.68
43711;BME280;29309;42.682;23.372;2023-05-23T11:05:24;94953.41;;;22.19;36.43
43711;BME280;29309;42.682;23.372;2023-05-23T11:08:10;94949.88;;;22.23;36.77
43711;BME280;29309;42.682;23.372;2023-05-23T11:10:54;94940.00;;;22.28;36.96
43711;BME280;29309;42.682;23.372;2023-05-23T11:13:21;94948.47;;;22.34;37.53
43711;BME280;29309;42.682;23.372;2023-05-23T11:15:47;94949.19;;;22.34;36.81
43711;BME280;29309;42.682;23.372;2023-05-23T11:18:25;94948.47;;;22.30;36.92
43711;BME280;29309;42.682;23.372;2023-05-23T11:20:52;94940.00;;;22.28;36.86
43711;BME280;29309;42.682;23.372;2023-05-23T11:23:19;94935.75;;;22.29;36.79
43711;BME280;29309;42.682;23.372;2023-05-23T11:25:52;94925.84;;;22.36;38.31
43711;BME280;29309;42.682;23.372;2023-05-23T11:28:18;94936.47;;;22.33;37.54
43711;BME280;29309;42.682;23.372;2023-05-23T11:30:47;94933.66;;;22.31;37.18
43711;BME280;29309;42.682;23.372;2023-05-23T11:33:14;94930.78;;;22.25;35.94
43711;BME280;29309;42.682;23.372;2023-05-23T11:35:45;94939.28;;;22.23;36.11
43711;BME280;29309;42.682;23.372;2023-05-23T11:38:10;94927.25;;;22.19;35.69
43711;BME280;29309;42.682;23.372;2023-05-23T11:40:40;94935.72;;;22.15;36.37
43711;BME280;29309;42.682;23.372;2023-05-23T11:43:08;94923.00;;;22.05;36.84
43711;BME280;29309;42.682;23.372;2023-05-23T11:45:36;94917.34;;;22.05;36.92
43711;BME280;29309;42.682;23.372;2023-05-23T11:50:51;94918.75;;;22.00;36.76
43711;BME280;29309;42.682;23.372;2023-05-23T11:53:20;94914.53;;;22.01;37.02
43711;BME280;29309;42.682;23.372;2023-05-23T11:55:50;94911.00;;;22.11;37.70
43711;BME280;29309;42.682;23.372;2023-05-23T11:58:18;94915.25;;;22.20;38.75
43711;BME280;29309;42.682;23.372;2023-05-23T12:00:44;94906.03;;;22.22;37.27
43711;BME280;29309;42.682;23.372;2023-05-23T12:03:09;94907.47;;;22.19;37.03
43711;BME280;29309;42.682;23.372;2023-05-23T12:05:36;94896.16;;;22.21;36.47
43711;BME280;29309;42.682;23.372;2023-05-23T12:08:01;94908.88;;;22.26;36.55
43711;BME280;29309;42.682;23.372;2023-05-23T12:10:27;94910.28;;;22.23;35.92
43711;BME280;29309;42.682;23.372;2023-05-23T12:12:52;94896.88;;;22.19;36.51
43711;BME280;29309;42.682;23.372;2023-05-23T12:15:24;94899.69;;;22.19;36.87
43711;BME280;29309;42.682;23.372;2023-05-23T12:17:53;94893.34;;;22.21;37.04
43711;BME280;29309;42.682;23.372;2023-05-23T12:20:19;94887.66;;;22.19;37.71
43711;BME280;29309;42.682;23.372;2023-05-23T12:22:45;94895.47;;;22.20;36.92
43711;BME280;29309;42.682;23.372;2023-05-23T12:25:10;94891.91;;;22.18;37.83
43711;BME280;29309;42.682;23.372;2023-05-23T12:27:39;94879.19;;;22.17;37.52
43711;BME280;29309;42.682;23.372;2023-05-23T12:30:09;94877.06;;;22.19;37.25
43711;BME280;29309;42.682;23.372;2023-05-23T12:32:39;94879.19;;;22.21;36.37
43711;BME280;29309;42.682;23.372;2023-05-23T12:35:07;94869.28;;;22.16;35.98
43711;BME280;29309;42.682;23.372;2023-05-23T12:37:33;94860.78;;;21.99;35.45
43711;BME280;29309;42.682;23.372;2023-05-23T12:40:15;94873.53;;;21.98;35.91
43711;BME280;29309;42.682;23.372;2023-05-23T12:42:54;94867.88;;;21.94;32.00
43711;BME280;29309;42.682;23.372;2023-05-23T12:45:30;94872.09;;;21.97;32.28
43711;BME280;29309;42.682;23.372;2023-05-23T12:47:56;94860.09;;;22.01;32.31
43711;BME280;29309;42.682;23.372;2023-05-23T12:50:22;94867.88;;;22.04;32.79
43711;BME280;29309;42.682;23.372;2023-05-23T12:52:47;94857.97;;;22.07;31.97
43711;BME280;29309;42.682;23.372;2023-05-23T12:55:13;94854.44;;;22.07;32.08
43711;BME280;29309;42.682;23.372;2023-05-23T12:57:38;94850.91;;;22.13;32.45
43711;BME280;29309;42.682;23.372;2023-05-23T13:00:04;94864.34;;;22.22;32.82
43711;BME280;29309;42.682;23.372;2023-05-23T13:02:31;94848.09;;;22.23;31.16
43711;BME280;29309;42.682;23.372;2023-05-23T13:04:56;94855.16;;;22.22;30.60